sensor_id;sensor_type;location;lat;lon;timestamp;temperature;humidity
52543;DHT22;38449;52.696;6.186;2024-02-23T00:01:09;5.30;99.90
52543;DHT22;38449;52.696;6.186;2024-02-23T00:03:37;5.40;99.90
52543;DHT22;38449;52.696;6.186;2024-02-23T00:06:04;5.50;99.90
52543;DHT22;38449;52.696;6.186;2024-02-23T00:08:30;5.30;99.90
52543;DHT22;38449;52.696;6.186;2024-02-23T00:10:56;5.40;99.90
52543;DHT22;38449;52.696;6.186;2024-02-23T00:13:23;5.40;99.90
52543;DHT22;38449;52.696;6.186;2024-02-23T00:15:50;5.30;99.90
52543;DHT22;38449;52.696;6.186;2024-02-23T00:18:16;5.40;99.90
52543;DHT22;38449;52.696;6.186;2024-02-23T00:20:44;5.00;99.90
52543;DHT22;38449;52.696;6.186;2024-02-23T00:23:14;5.10;99.90
52543;DHT22;38449;52.696;6.186;2024-02-23T00:25:41;4.90;99.90
52543;DHT22;38449;52.696;6.186;2024-02-23T00:28:08;5.20;99.90
52543;DHT22;38449;52.696;6.186;2024-02-23T00:30:34;4.70;99.90
52543;DHT22;38449;52.696;6.186;2024-02-23T00:33:00;4.70;99.90
52543;DHT22;38449;52.696;6.186;2024-02-23T00:35:27;4.80;99.90
52543;DHT22;38449;52.696;6.186;2024-02-23T00:37:53;4.70;99.90
52543;DHT22;38449;52.696;6.186;2024-02-23T00:40:21;5.00;99.90
52543;DHT22;38449;52.696;6.186;2024-02-23T00:42:47;5.00;99.90
52543;DHT22;38449;52.696;6.186;2024-02-23T00:45:13;4.70;99.90
52543;DHT22;38449;52.696;6.186;2024-02-23T00:47:43;5.00;99.90
52543;DHT22;38449;52.696;6.186;2024-02-23T00:50:09;4.60;99.90
52543;DHT22;38449;52.696;6.186;2024-02-23T00:52:36;4.60;99.90
52543;DHT22;38449;52.696;6.186;2024-02-23T00:55:03;4.80;99.90
52543;DHT22;38449;52.696;6.186;2024-02-23T00:57:29;5.00;99.90
52543;DHT22;38449;52.696;6.186;2024-02-23T00:59:56;4.60;99.90
52543;DHT22;38449;52.696;6.186;2024-02-23T01:02:23;5.10;99.90
52543;DHT22;38449;52.696;6.186;2024-02-23T01:04:49;4.80;99.90
52543;DHT22;38449;52.696;6.186;2024-02-23T01:07:15;4.80;99.90
52543;DHT22;38449;52.696;6.186;2024-02-23T01:09:43;5.10;99.90
52543;DHT22;38449;52.696;6.186;2024-02-23T01:12:12;5.00;99.90
52543;DHT22;38449;52.696;6.186;2024-02-23T01:14:39;4.80;99.90
52543;DHT22;38449;52.696;6.186;2024-02-23T01:17:05;5.10;99.90
52543;DHT22;38449;52.696;6.186;2024-02-23T01:19:35;5.10;99.90
52543;DHT22;38449;52.696;6.186;2024-02-23T01:22:01;5.10;99.90
52543;DHT22;38449;52.696;6.186;2024-02-23T01:24:27;4.90;99.90
52543;DHT22;38449;52.696;6.186;2024-02-23T01:26:56;5.30;99.90
52543;DHT22;38449;52.696;6.186;2024-02-23T01:29:24;5.30;99.90
52543;DHT22;38449;52.696;6.186;2024-02-23T01:31:51;5.50;99.90
52543;DHT22;38449;52.696;6.186;2024-02-23T01:34:17;5.40;99.90
52543;DHT22;38449;52.696;6.186;2024-02-23T01:36:44;5.60;99.90
52543;DHT22;38449;52.696;6.186;2024-02-23T01:39:12;5.30;99.90
52543;DHT22;38449;52.696;6.186;2024-02-23T01:41:45;5.40;99.90
52543;DHT22;38449;52.696;6.186;2024-02-23T01:44:11;5.70;99.90
52543;DHT22;38449;52.696;6.186;2024-02-23T01:46:38;5.60;99.90
52543;DHT22;38449;52.696;6.186;2024-02-23T01:49:05;5.60;99.90
52543;DHT22;38449;52.696;6.186;2024-02-23T01:51:32;5.70;99.90
52543;DHT22;38449;52.696;6.186;2024-02-23T01:53:59;6.10;99.90
52543;DHT22;38449;52.696;6.186;2024-02-23T01:56:25;6.00;99.90
52543;DHT22;38449;52.696;6.186;2024-02-23T01:58:53;5.80;99.90
52543;DHT22;38449;52.696;6.186;2024-02-23T02:01:20;6.10;99.90
52543;DHT22;38449;52.696;6.186;2024-02-23T02:03:48;6.00;99.90
52543;DHT22;38449;52.696;6.186;2024-02-23T02:06:19;6.10;99.90
52543;DHT22;38449;52.696;6.186;2024-02-23T02:08:46;6.10;99.90
52543;DHT22;38449;52.696;6.186;2024-02-23T02:11:13;5.80;99.90
52543;DHT22;38449;52.696;6.186;2024-02-23T02:13:40;5.90;99.90
52543;DHT22;38449;52.696;6.186;2024-02-23T02:16:06;6.10;99.90
52543;DHT22;38449;52.696;6.186;2024-02-23T02:18:34;6.10;99.90
52543;DHT22;38449;52.696;6.186;2024-02-23T02:21:01;6.10;99.90
52543;DHT22;38449;52.696;6.186;2024-02-23T02:23:27;6.10;99.90
52543;DHT22;38449;52.696;6.186;2024-02-23T02:25:57;5.80;99.90
52543;DHT22;38449;52.696;6.186;2024-02-23T02:28:25;5.90;99.90
52543;DHT22;38449;52.696;6.186;2024-02-23T02:30:52;6.10;99.90
52543;DHT22;38449;52.696;6.186;2024-02-23T02:33:22;5.90;99.90
52543;DHT22;38449;52.696;6.186;2024-02-23T02:35:49;6.10;99.90
52543;DHT22;38449;52.696;6.186;2024-02-23T02:38:18;6.10;99.90
52543;DHT22;38449;52.696;6.186;2024-02-23T02:40:44;5.80;99.90
52543;DHT22;38449;52.696;6.186;2024-02-23T02:43:11;6.00;99.90
52543;DHT22;38449;52.696;6.186;2024-02-23T02:45:37;5.90;99.90
52543;DHT22;38449;52.696;6.186;2024-02-23T02:48:04;5.90;99.90
52543;DHT22;38449;52.696;6.186;2024-02-23T02:50:31;5.70;99.90
52543;DHT22;38449;52.696;6.186;2024-02-23T02:52:57;5.90;99.90
52543;DHT22;38449;52.696;6.186;2024-02-23T02:55:23;5.90;99.90
52543;DHT22;38449;52.696;6.186;2024-02-23T02:57:50;5.90;99.90
52543;DHT22;38449;52.696;6.186;2024-02-23T03:00:16;5.70;99.90
52543;DHT22;38449;52.696;6.186;2024-02-23T03:02:42;5.90;99.90
52543;DHT22;38449;52.696;6.186;2024-02-23T03:05:09;5.70;99.90
52543;DHT22;38449;52.696;6.186;2024-02-23T03:07:35;5.80;99.90
52543;DHT22;38449;52.696;6.186;2024-02-23T03:10:02;5.70;99.90
52543;DHT22;38449;52.696;6.186;2024-02-23T03:12:28;5.80;99.90
52543;DHT22;38449;52.696;6.186;2024-02-23T03:14:54;5.80;99.90
52543;DHT22;38449;52.696;6.186;2024-02-23T03:17:22;5.60;99.90
52543;DHT22;38449;52.696;6.186;2024-02-23T03:19:49;5.70;99.90
52543;DHT22;38449;52.696;6.186;2024-02-23T03:22:16;5.70;99.90
52543;DHT22;38449;52.696;6.186;2024-02-23T03:24:42;5.70;99.90
52543;DHT22;38449;52.696;6.186;2024-02-23T03:27:11;5.50;99.90
52543;DHT22;38449;52.696;6.186;2024-02-23T03:29:38;5.40;99.90
52543;DHT22;38449;52.696;6.186;2024-02-23T03:32:07;5.30;99.90
52543;DHT22;38449;52.696;6.186;2024-02-23T03:34:33;5.20;99.90
52543;DHT22;38449;52.696;6.186;2024-02-23T03:37:01;5.30;99.90
52543;DHT22;38449;52.696;6.186;2024-02-23T03:39:29;5.10;99.90
52543;DHT22;38449;52.696;6.186;2024-02-23T03:41:55;5.20;99.90
52543;DHT22;38449;52.696;6.186;2024-02-23T03:44:21;5.20;99.90
52543;DHT22;38449;52.696;6.186;2024-02-23T03:46:49;5.10;99.90
52543;DHT22;38449;52.696;6.186;2024-02-23T03:49:15;5.10;99.90
52543;DHT22;38449;52.696;6.186;2024-02-23T03:51:42;5.00;99.90
52543;DHT22;38449;52.696;6.186;2024-02-23T03:54:09;4.90;99.90
52543;DHT22;38449;52.696;6.186;2024-02-23T03:56:39;4.90;99.90
52543;DHT22;38449;52.696;6.186;2024-02-23T03:59:06;5.00;99.90
52543;DHT22;38449;52.696;6.186;2024-02-23T04:01:39;5.20;99.90
52543;DHT22;38449;52.696;6.186;2024-02-23T04:04:06;5.30;99.90
52543;DHT22;38449;52.696;6.186;2024-02-23T04:06:34;5.10;99.90
52543;DHT22;38449;52.696;6.186;2024-02-23T04:09:00;5.10;99.90
52543;DHT22;38449;52.696;6.186;2024-02-23T04:11:28;5.20;99.90
52543;DHT22;38449;52.696;6.186;2024-02-23T04:13:55;5.00;99.90
52543;DHT22;38449;52.696;6.186;2024-02-23T04:16:24;5.20;99.90
52543;DHT22;38449;52.696;6.186;2024-02-23T04:18:51;5.00;99.90
52543;DHT22;38449;52.696;6.186;2024-02-23T04:21:21;5.00;99.90
52543;DHT22;38449;52.696;6.186;2024-02-23T04:23:49;5.30;99.90
52543;DHT22;38449;52.696;6.186;2024-02-23T04:26:15;5.20;99.90
52543;DHT22;38449;52.696;6.186;2024-02-23T04:28:42;5.20;99.90
52543;DHT22;38449;52.696;6.186;2024-02-23T04:31:09;5.20;99.90
52543;DHT22;38449;52.696;6.186;2024-02-23T04:33:36;5.00;99.90
52543;DHT22;38449;52.696;6.186;2024-02-23T04:36:03;5.00;99.90
52543;DHT22;38449;52.696;6.186;2024-02-23T04:38:30;5.30;99.90
52543;DHT22;38449;52.696;6.186;2024-02-23T04:40:58;5.20;99.90
52543;DHT22;38449;52.696;6.186;2024-02-23T04:43:24;5.00;99.90
52543;DHT22;38449;52.696;6.186;2024-02-23T04:45:51;5.30;99.90
52543;DHT22;38449;52.696;6.186;2024-02-23T04:48:17;5.00;99.90
52543;DHT22;38449;52.696;6.186;2024-02-23T04:50:47;5.10;99.90
52543;DHT22;38449;52.696;6.186;2024-02-23T04:53:15;5.20;99.90
52543;DHT22;38449;52.696;6.186;2024-02-23T04:55:41;4.90;99.90
52543;DHT22;38449;52.696;6.186;2024-02-23T04:58:09;4.80;99.90
52543;DHT22;38449;52.696;6.186;2024-02-23T05:00:35;4.80;99.90
52543;DHT22;38449;52.696;6.186;2024-02-23T05:03:03;5.10;99.90
52543;DHT22;38449;52.696;6.186;2024-02-23T05:05:30;4.90;99.90
52543;DHT22;38449;52.696;6.186;2024-02-23T05:07:56;5.10;99.90
52543;DHT22;38449;52.696;6.186;2024-02-23T05:10:29;4.90;99.90
52543;DHT22;38449;52.696;6.186;2024-02-23T05:12:55;5.10;99.90
52543;DHT22;38449;52.696;6.186;2024-02-23T05:15:21;5.20;99.90
52543;DHT22;38449;52.696;6.186;2024-02-23T05:17:48;4.90;99.90
52543;DHT22;38449;52.696;6.186;2024-02-23T05:20:14;4.90;99.90
52543;DHT22;38449;52.696;6.186;2024-02-23T05:22:41;5.10;99.90
52543;DHT22;38449;52.696;6.186;2024-02-23T05:25:07;4.90;99.90
52543;DHT22;38449;52.696;6.186;2024-02-23T05:27:34;5.10;99.90
52543;DHT22;38449;52.696;6.186;2024-02-23T05:30:00;5.10;99.90
52543;DHT22;38449;52.696;6.186;2024-02-23T05:32:26;5.00;99.90
52543;DHT22;38449;52.696;6.186;2024-02-23T05:34:53;4.80;99.90
52543;DHT22;38449;52.696;6.186;2024-02-23T05:37:21;4.80;99.90
52543;DHT22;38449;52.696;6.186;2024-02-23T05:39:47;4.80;99.90
52543;DHT22;38449;52.696;6.186;2024-02-23T05:42:14;5.00;99.90
52543;DHT22;38449;52.696;6.186;2024-02-23T05:44:43;4.90;99.90
52543;DHT22;38449;52.696;6.186;2024-02-23T05:47:10;5.10;99.90
52543;DHT22;38449;52.696;6.186;2024-02-23T05:49:37;5.10;99.90
52543;DHT22;38449;52.696;6.186;2024-02-23T05:52:04;4.80;99.90
52543;DHT22;38449;52.696;6.186;2024-02-23T05:54:30;5.00;99.90
52543;DHT22;38449;52.696;6.186;2024-02-23T05:56:57;4.90;99.90
52543;DHT22;38449;52.696;6.186;2024-02-23T05:59:23;4.90;99.90
52543;DHT22;38449;52.696;6.186;2024-02-23T06:01:49;4.70;99.90
52543;DHT22;38449;52.696;6.186;2024-02-23T06:04:18;4.80;99.90
52543;DHT22;38449;52.696;6.186;2024-02-23T06:06:44;4.60;99.90
52543;DHT22;38449;52.696;6.186;2024-02-23T06:09:10;4.70;99.90
52543;DHT22;38449;52.696;6.186;2024-02-23T06:11:37;4.80;99.90
52543;DHT22;38449;52.696;6.186;2024-02-23T06:14:04;4.90;99.90
52543;DHT22;38449;52.696;6.186;2024-02-23T06:16:30;4.70;99.90
52543;DHT22;38449;52.696;6.186;2024-02-23T06:18:56;5.00;99.90
52543;DHT22;38449;52.696;6.186;2024-02-23T06:21:25;4.80;99.90
52543;DHT22;38449;52.696;6.186;2024-02-23T06:23:52;5.00;99.90
52543;DHT22;38449;52.696;6.186;2024-02-23T06:26:18;4.90;99.90
52543;DHT22;38449;52.696;6.186;2024-02-23T06:28:47;4.70;99.90
52543;DHT22;38449;52.696;6.186;2024-02-23T06:31:15;4.90;99.90
52543;DHT22;38449;52.696;6.186;2024-02-23T06:33:41;4.90;99.90
52543;DHT22;38449;52.696;6.186;2024-02-23T06:36:08;5.10;99.90
52543;DHT22;38449;52.696;6.186;2024-02-23T06:38:35;5.20;99.90
52543;DHT22;38449;52.696;6.186;2024-02-23T06:41:01;5.00;99.90
52543;DHT22;38449;52.696;6.186;2024-02-23T06:43:28;5.00;99.90
52543;DHT22;38449;52.696;6.186;2024-02-23T06:45:54;5.00;99.90
52543;DHT22;38449;52.696;6.186;2024-02-23T06:48:20;5.00;99.90
52543;DHT22;38449;52.696;6.186;2024-02-23T06:50:46;5.10;99.90
52543;DHT22;38449;52.696;6.186;2024-02-23T06:53:13;5.30;99.90
52543;DHT22;38449;52.696;6.186;2024-02-23T06:55:39;5.30;99.90
52543;DHT22;38449;52.696;6.186;2024-02-23T06:58:05;5.40;99.90
52543;DHT22;38449;52.696;6.186;2024-02-23T07:00:33;5.40;99.90
52543;DHT22;38449;52.696;6.186;2024-02-23T07:02:59;5.20;99.90
52543;DHT22;38449;52.696;6.186;2024-02-23T07:05:27;5.30;99.90
52543;DHT22;38449;52.696;6.186;2024-02-23T07:07:54;5.20;99.90
52543;DHT22;38449;52.696;6.186;2024-02-23T07:10:20;5.20;99.90
52543;DHT22;38449;52.696;6.186;2024-02-23T07:12:48;5.40;99.90
52543;DHT22;38449;52.696;6.186;2024-02-23T07:15:14;5.40;99.90
52543;DHT22;38449;52.696;6.186;2024-02-23T07:17:41;5.50;99.90
52543;DHT22;38449;52.696;6.186;2024-02-23T07:20:07;5.60;99.90
52543;DHT22;38449;52.696;6.186;2024-02-23T07:22:34;5.50;99.90
52543;DHT22;38449;52.696;6.186;2024-02-23T07:25:00;5.40;99.90
52543;DHT22;38449;52.696;6.186;2024-02-23T07:27:30;5.60;99.90
52543;DHT22;38449;52.696;6.186;2024-02-23T07:29:59;5.60;99.90
52543;DHT22;38449;52.696;6.186;2024-02-23T07:32:25;5.50;99.90
52543;DHT22;38449;52.696;6.186;2024-02-23T07:34:51;5.40;99.90
52543;DHT22;38449;52.696;6.186;2024-02-23T07:37:21;5.40;99.90
52543;DHT22;38449;52.696;6.186;2024-02-23T07:39:48;5.60;99.90
52543;DHT22;38449;52.696;6.186;2024-02-23T07:42:14;5.50;99.90
52543;DHT22;38449;52.696;6.186;2024-02-23T07:44:45;5.70;99.90
52543;DHT22;38449;52.696;6.186;2024-02-23T07:47:11;5.60;99.90
52543;DHT22;38449;52.696;6.186;2024-02-23T07:49:38;5.50;99.90
52543;DHT22;38449;52.696;6.186;2024-02-23T07:52:07;5.50;99.90
52543;DHT22;38449;52.696;6.186;2024-02-23T07:54:33;5.80;99.90
52543;DHT22;38449;52.696;6.186;2024-02-23T07:56:59;5.80;99.90
52543;DHT22;38449;52.696;6.186;2024-02-23T07:59:29;5.60;99.90
52543;DHT22;38449;52.696;6.186;2024-02-23T08:01:55;5.80;99.90
52543;DHT22;38449;52.696;6.186;2024-02-23T08:04:22;5.80;99.90
52543;DHT22;38449;52.696;6.186;2024-02-23T08:06:48;5.70;99.90
52543;DHT22;38449;52.696;6.186;2024-02-23T08:09:15;5.80;99.90
52543;DHT22;38449;52.696;6.186;2024-02-23T08:11:41;5.80;99.90
52543;DHT22;38449;52.696;6.186;2024-02-23T08:14:07;5.80;99.90
52543;DHT22;38449;52.696;6.186;2024-02-23T08:16:34;5.60;99.90
52543;DHT22;38449;52.696;6.186;2024-02-23T08:19:01;5.60;99.90
52543;DHT22;38449;52.696;6.186;2024-02-23T08:21:27;5.70;99.90
52543;DHT22;38449;52.696;6.186;2024-02-23T08:23:54;5.70;99.90
52543;DHT22;38449;52.696;6.186;2024-02-23T08:26:21;5.80;99.90
52543;DHT22;38449;52.696;6.186;2024-02-23T08:28:48;5.90;99.90
52543;DHT22;38449;52.696;6.186;2024-02-23T08:31:14;5.80;99.90
52543;DHT22;38449;52.696;6.186;2024-02-23T08:33:42;6.00;99.90
52543;DHT22;38449;52.696;6.186;2024-02-23T08:36:10;5.80;99.90
52543;DHT22;38449;52.696;6.186;2024-02-23T08:38:36;6.10;99.90
52543;DHT22;38449;52.696;6.186;2024-02-23T08:41:03;6.10;99.90
52543;DHT22;38449;52.696;6.186;2024-02-23T08:43:29;6.00;99.90
52543;DHT22;38449;52.696;6.186;2024-02-23T08:45:56;6.30;99.90
52543;DHT22;38449;52.696;6.186;2024-02-23T08:48:22;6.30;99.90
52543;DHT22;38449;52.696;6.186;2024-02-23T08:50:49;6.30;99.90
52543;DHT22;38449;52.696;6.186;2024-02-23T08:53:15;6.70;99.90
52543;DHT22;38449;52.696;6.186;2024-02-23T08:55:41;6.80;99.90
52543;DHT22;38449;52.696;6.186;2024-02-23T08:58:08;6.90;99.90
52543;DHT22;38449;52.696;6.186;2024-02-23T09:00:35;6.80;99.90
52543;DHT22;38449;52.696;6.186;2024-02-23T09:03:04;6.90;99.90
52543;DHT22;38449;52.696;6.186;2024-02-23T09:05:30;6.90;99.90
52543;DHT22;38449;52.696;6.186;2024-02-23T09:07:58;6.90;99.90
52543;DHT22;38449;52.696;6.186;2024-02-23T09:10:25;6.70;99.90
52543;DHT22;38449;52.696;6.186;2024-02-23T09:12:51;6.80;99.90
52543;DHT22;38449;52.696;6.186;2024-02-23T09:15:18;6.80;99.90
52543;DHT22;38449;52.696;6.186;2024-02-23T09:17:46;6.70;99.90
52543;DHT22;38449;52.696;6.186;2024-02-23T09:20:12;6.70;99.90
52543;DHT22;38449;52.696;6.186;2024-02-23T09:22:40;6.70;99.90
52543;DHT22;38449;52.696;6.186;2024-02-23T09:25:08;6.70;99.90
52543;DHT22;38449;52.696;6.186;2024-02-23T09:27:34;6.80;99.90
52543;DHT22;38449;52.696;6.186;2024-02-23T09:30:06;6.90;99.90
52543;DHT22;38449;52.696;6.186;2024-02-23T09:32:32;6.90;99.90
52543;DHT22;38449;52.696;6.186;2024-02-23T09:35:01;6.80;99.90
52543;DHT22;38449;52.696;6.186;2024-02-23T09:37:27;6.80;99.90
52543;DHT22;38449;52.696;6.186;2024-02-23T09:39:53;6.90;99.90
52543;DHT22;38449;52.696;6.186;2024-02-23T09:42:22;6.90;99.90
52543;DHT22;38449;52.696;6.186;2024-02-23T09:44:58;7.00;99.90
52543;DHT22;38449;52.696;6.186;2024-02-23T09:47:28;7.10;99.90
52543;DHT22;38449;52.696;6.186;2024-02-23T09:49:55;7.10;99.90
52543;DHT22;38449;52.696;6.186;2024-02-23T09:52:22;7.20;99.90
52543;DHT22;38449;52.696;6.186;2024-02-23T09:54:49;7.00;99.90
52543;DHT22;38449;52.696;6.186;2024-02-23T09:57:19;7.00;99.90
52543;DHT22;38449;52.696;6.186;2024-02-23T09:59:48;7.10;99.90
52543;DHT22;38449;52.696;6.186;2024-02-23T10:02:17;6.90;99.90
52543;DHT22;38449;52.696;6.186;2024-02-23T10:04:44;7.00;99.90
52543;DHT22;38449;52.696;6.186;2024-02-23T10:07:14;6.90;99.90
52543;DHT22;38449;52.696;6.186;2024-02-23T10:09:41;6.90;99.90
52543;DHT22;38449;52.696;6.186;2024-02-23T10:12:08;6.90;99.90
52543;DHT22;38449;52.696;6.186;2024-02-23T10:14:34;6.90;99.90
52543;DHT22;38449;52.696;6.186;2024-02-23T10:17:01;6.80;99.90
52543;DHT22;38449;52.696;6.186;2024-02-23T10:19:28;6.80;99.90
52543;DHT22;38449;52.696;6.186;2024-02-23T10:21:56;6.70;99.90
52543;DHT22;38449;52.696;6.186;2024-02-23T10:24:23;6.90;99.90
52543;DHT22;38449;52.696;6.186;2024-02-23T10:26:51;6.90;99.90
52543;DHT22;38449;52.696;6.186;2024-02-23T10:29:18;6.80;99.90
52543;DHT22;38449;52.696;6.186;2024-02-23T10:31:47;6.90;99.90
52543;DHT22;38449;52.696;6.186;2024-02-23T10:34:18;7.00;99.90
52543;DHT22;38449;52.696;6.186;2024-02-23T10:36:46;6.90;99.90
52543;DHT22;38449;52.696;6.186;2024-02-23T10:39:17;7.10;99.90
52543;DHT22;38449;52.696;6.186;2024-02-23T10:41:55;7.10;99.90
52543;DHT22;38449;52.696;6.186;2024-02-23T10:44:24;7.10;99.90
52543;DHT22;38449;52.696;6.186;2024-02-23T10:46:50;7.20;99.90
52543;DHT22;38449;52.696;6.186;2024-02-23T10:49:17;7.00;99.90
52543;DHT22;38449;52.696;6.186;2024-02-23T10:51:47;7.20;99.90
52543;DHT22;38449;52.696;6.186;2024-02-23T10:54:21;7.20;99.90
52543;DHT22;38449;52.696;6.186;2024-02-23T10:56:49;7.20;99.90
52543;DHT22;38449;52.696;6.186;2024-02-23T10:59:17;7.30;99.90
52543;DHT22;38449;52.696;6.186;2024-02-23T11:01:49;7.30;99.90
52543;DHT22;38449;52.696;6.186;2024-02-23T11:04:20;7.20;99.90
52543;DHT22;38449;52.696;6.186;2024-02-23T11:06:52;7.30;99.90
52543;DHT22;38449;52.696;6.186;2024-02-23T11:09:23;7.30;99.90
52543;DHT22;38449;52.696;6.186;2024-02-23T11:11:54;7.20;99.90
52543;DHT22;38449;52.696;6.186;2024-02-23T11:14:38;7.30;99.90
52543;DHT22;38449;52.696;6.186;2024-02-23T11:17:06;7.30;99.90
52543;DHT22;38449;52.696;6.186;2024-02-23T11:19:39;7.20;99.90
52543;DHT22;38449;52.696;6.186;2024-02-23T11:22:10;7.20;99.90
52543;DHT22;38449;52.696;6.186;2024-02-23T11:24:42;7.30;99.90
52543;DHT22;38449;52.696;6.186;2024-02-23T11:27:15;7.20;99.90
52543;DHT22;38449;52.696;6.186;2024-02-23T11:29:46;7.30;99.90
52543;DHT22;38449;52.696;6.186;2024-02-23T11:32:16;7.10;99.90
52543;DHT22;38449;52.696;6.186;2024-02-23T11:34:57;7.20;99.90
52543;DHT22;38449;52.696;6.186;2024-02-23T11:37:28;7.10;99.90
52543;DHT22;38449;52.696;6.186;2024-02-23T11:39:56;7.20;99.90
52543;DHT22;38449;52.696;6.186;2024-02-23T11:42:23;7.30;99.90
52543;DHT22;38449;52.696;6.186;2024-02-23T11:44:50;7.30;99.90
52543;DHT22;38449;52.696;6.186;2024-02-23T11:47:19;7.30;99.90
52543;DHT22;38449;52.696;6.186;2024-02-23T11:49:48;7.10;99.90
52543;DHT22;38449;52.696;6.186;2024-02-23T11:52:17;7.30;99.90
52543;DHT22;38449;52.696;6.186;2024-02-23T11:54:44;7.20;99.90
52543;DHT22;38449;52.696;6.186;2024-02-23T11:57:10;7.30;99.90
52543;DHT22;38449;52.696;6.186;2024-02-23T11:59:37;7.40;99.90
52543;DHT22;38449;52.696;6.186;2024-02-23T12:02:03;7.20;99.90
52543;DHT22;38449;52.696;6.186;2024-02-23T12:04:30;7.40;99.90
52543;DHT22;38449;52.696;6.186;2024-02-23T12:06:57;7.30;99.90
52543;DHT22;38449;52.696;6.186;2024-02-23T12:09:23;7.40;99.90
52543;DHT22;38449;52.696;6.186;2024-02-23T12:11:50;7.40;99.90
52543;DHT22;38449;52.696;6.186;2024-02-23T12:14:17;7.30;99.90
52543;DHT22;38449;52.696;6.186;2024-02-23T12:16:45;7.40;99.90
52543;DHT22;38449;52.696;6.186;2024-02-23T12:19:11;7.40;99.90
52543;DHT22;38449;52.696;6.186;2024-02-23T12:21:37;7.30;99.90
52543;DHT22;38449;52.696;6.186;2024-02-23T12:24:04;7.40;99.90
52543;DHT22;38449;52.696;6.186;2024-02-23T12:26:32;7.30;99.90
52543;DHT22;38449;52.696;6.186;2024-02-23T12:29:02;7.40;99.90
52543;DHT22;38449;52.696;6.186;2024-02-23T12:31:31;7.40;99.90
52543;DHT22;38449;52.696;6.186;2024-02-23T12:33:58;7.40;99.90
52543;DHT22;38449;52.696;6.186;2024-02-23T12:36:26;7.50;99.90
52543;DHT22;38449;52.696;6.186;2024-02-23T12:38:53;7.50;99.90
52543;DHT22;38449;52.696;6.186;2024-02-23T12:41:19;7.40;99.90
52543;DHT22;38449;52.696;6.186;2024-02-23T12:43:45;7.50;99.90
52543;DHT22;38449;52.696;6.186;2024-02-23T12:46:12;7.40;99.90
52543;DHT22;38449;52.696;6.186;2024-02-23T12:48:40;7.60;99.90
52543;DHT22;38449;52.696;6.186;2024-02-23T12:51:06;7.50;99.90
52543;DHT22;38449;52.696;6.186;2024-02-23T12:53:37;7.60;99.90
52543;DHT22;38449;52.696;6.186;2024-02-23T12:56:12;7.50;99.90
52543;DHT22;38449;52.696;6.186;2024-02-23T12:58:40;7.60;99.90
52543;DHT22;38449;52.696;6.186;2024-02-23T13:01:07;7.50;99.90
52543;DHT22;38449;52.696;6.186;2024-02-23T13:03:35;7.60;99.90
52543;DHT22;38449;52.696;6.186;2024-02-23T13:06:01;7.80;99.90
52543;DHT22;38449;52.696;6.186;2024-02-23T13:08:28;7.80;99.90
52543;DHT22;38449;52.696;6.186;2024-02-23T13:10:56;7.90;99.90
52543;DHT22;38449;52.696;6.186;2024-02-23T13:13:22;8.10;99.90
52543;DHT22;38449;52.696;6.186;2024-02-23T13:15:50;8.10;99.90
52543;DHT22;38449;52.696;6.186;2024-02-23T13:18:17;8.10;99.90
52543;DHT22;38449;52.696;6.186;2024-02-23T13:20:43;8.10;99.90
52543;DHT22;38449;52.696;6.186;2024-02-23T13:23:10;8.20;99.90
52543;DHT22;38449;52.696;6.186;2024-02-23T13:25:38;8.10;99.90
52543;DHT22;38449;52.696;6.186;2024-02-23T13:28:05;8.20;99.90
52543;DHT22;38449;52.696;6.186;2024-02-23T13:30:32;8.10;99.90
52543;DHT22;38449;52.696;6.186;2024-02-23T13:32:59;8.10;99.90
52543;DHT22;38449;52.696;6.186;2024-02-23T13:35:26;8.10;99.90
52543;DHT22;38449;52.696;6.186;2024-02-23T13:37:53;8.10;99.90
52543;DHT22;38449;52.696;6.186;2024-02-23T13:40:20;8.20;99.90
52543;DHT22;38449;52.696;6.186;2024-02-23T13:42:47;8.30;99.90
52543;DHT22;38449;52.696;6.186;2024-02-23T13:45:16;8.20;99.90
52543;DHT22;38449;52.696;6.186;2024-02-23T13:47:54;8.20;99.90
52543;DHT22;38449;52.696;6.186;2024-02-23T13:50:21;8.10;99.90
52543;DHT22;38449;52.696;6.186;2024-02-23T13:52:48;8.30;99.90
52543;DHT22;38449;52.696;6.186;2024-02-23T13:55:14;8.30;99.90
52543;DHT22;38449;52.696;6.186;2024-02-23T13:57:42;8.20;99.90
52543;DHT22;38449;52.696;6.186;2024-02-23T14:00:09;8.10;99.90
52543;DHT22;38449;52.696;6.186;2024-02-23T14:02:40;8.10;99.90
52543;DHT22;38449;52.696;6.186;2024-02-23T14:05:07;8.10;99.90
52543;DHT22;38449;52.696;6.186;2024-02-23T14:07:33;8.20;99.90
52543;DHT22;38449;52.696;6.186;2024-02-23T14:10:01;8.40;99.90
52543;DHT22;38449;52.696;6.186;2024-02-23T14:12:30;8.20;99.90
52543;DHT22;38449;52.696;6.186;2024-02-23T14:14:56;8.30;99.90
52543;DHT22;38449;52.696;6.186;2024-02-23T14:17:24;8.30;99.90
52543;DHT22;38449;52.696;6.186;2024-02-23T14:19:50;8.30;99.90
52543;DHT22;38449;52.696;6.186;2024-02-23T14:22:17;8.30;99.90
52543;DHT22;38449;52.696;6.186;2024-02-23T14:24:44;8.20;99.90
52543;DHT22;38449;52.696;6.186;2024-02-23T14:27:11;8.30;99.90
52543;DHT22;38449;52.696;6.186;2024-02-23T14:29:37;8.30;99.90
52543;DHT22;38449;52.696;6.186;2024-02-23T14:32:04;8.30;99.90
52543;DHT22;38449;52.696;6.186;2024-02-23T14:34:30;8.30;99.90
52543;DHT22;38449;52.696;6.186;2024-02-23T14:36:59;8.20;99.90
52543;DHT22;38449;52.696;6.186;2024-02-23T14:39:26;8.30;99.90
52543;DHT22;38449;52.696;6.186;2024-02-23T14:41:52;8.30;99.90
52543;DHT22;38449;52.696;6.186;2024-02-23T14:44:19;8.30;99.90
52543;DHT22;38449;52.696;6.186;2024-02-23T14:46:45;8.30;99.90
52543;DHT22;38449;52.696;6.186;2024-02-23T14:49:11;8.40;99.90
52543;DHT22;38449;52.696;6.186;2024-02-23T14:51:39;8.30;99.90
52543;DHT22;38449;52.696;6.186;2024-02-23T14:54:09;8.30;99.90
52543;DHT22;38449;52.696;6.186;2024-02-23T14:56:35;8.30;99.90
52543;DHT22;38449;52.696;6.186;2024-02-23T14:59:01;8.30;99.90
52543;DHT22;38449;52.696;6.186;2024-02-23T15:01:28;8.20;99.90
52543;DHT22;38449;52.696;6.186;2024-02-23T15:03:54;8.30;99.90
52543;DHT22;38449;52.696;6.186;2024-02-23T15:06:21;8.30;99.90
52543;DHT22;38449;52.696;6.186;2024-02-23T15:08:48;8.20;99.90
52543;DHT22;38449;52.696;6.186;2024-02-23T15:11:15;8.30;99.90
52543;DHT22;38449;52.696;6.186;2024-02-23T15:13:41;8.20;99.90
52543;DHT22;38449;52.696;6.186;2024-02-23T15:16:08;8.30;99.90
52543;DHT22;38449;52.696;6.186;2024-02-23T15:18:35;8.30;99.90
52543;DHT22;38449;52.696;6.186;2024-02-23T15:21:01;8.20;99.90
52543;DHT22;38449;52.696;6.186;2024-02-23T15:23:28;8.20;99.90
52543;DHT22;38449;52.696;6.186;2024-02-23T15:25:54;8.10;99.90
52543;DHT22;38449;52.696;6.186;2024-02-23T15:28:22;8.10;99.90
52543;DHT22;38449;52.696;6.186;2024-02-23T15:30:51;8.10;99.90
52543;DHT22;38449;52.696;6.186;2024-02-23T15:33:19;8.00;99.90
52543;DHT22;38449;52.696;6.186;2024-02-23T15:35:45;8.10;99.90
52543;DHT22;38449;52.696;6.186;2024-02-23T15:38:12;8.10;99.90
52543;DHT22;38449;52.696;6.186;2024-02-23T15:40:38;8.00;99.90
52543;DHT22;38449;52.696;6.186;2024-02-23T15:43:05;8.20;99.90
52543;DHT22;38449;52.696;6.186;2024-02-23T15:45:31;8.10;99.90